createdAt,value
2022-11-13T00:01:31.926Z,144314.34
2022-11-13T00:04:18.004Z,144261.13
2022-11-13T00:07:03.588Z,144287.75
2022-11-13T00:09:49.270Z,144282.88
2022-11-13T00:12:35.077Z,144270.81
2022-11-13T00:15:20.488Z,144186.09
2022-11-13T00:18:06.183Z,144272.00
2022-11-13T00:20:51.759Z,144262.31
2022-11-13T00:23:37.901Z,144232.06
2022-11-13T00:26:26.495Z,144239.34
2022-11-13T00:29:11.961Z,144227.22
2022-11-13T00:31:57.571Z,144230.88
2022-11-13T00:34:48.099Z,144217.56
2022-11-13T00:37:34.285Z,144222.41
2022-11-13T00:40:20.113Z,144203.06
2022-11-13T00:43:05.564Z,144187.31
2022-11-13T00:45:51.757Z,143992.63
2022-11-13T00:48:37.745Z,144159.50
2022-11-13T00:51:23.706Z,144132.88
2022-11-13T00:54:09.274Z,144114.75
2022-11-13T00:56:55.024Z,144113.53
2022-11-13T00:59:40.852Z,144091.78
2022-11-13T01:02:26.427Z,144077.28
2022-11-13T01:05:12.332Z,144083.28
2022-11-13T01:07:57.829Z,144082.09
2022-11-13T01:10:53.423Z,144077.28
2022-11-13T01:13:41.267Z,144062.78
2022-11-13T01:16:28.122Z,143952.78
2022-11-13T01:19:13.924Z,143958.81
2022-11-13T01:21:59.496Z,144028.91
2022-11-13T01:24:45.309Z,144038.59
2022-11-13T01:27:31.584Z,144042.19
2022-11-13T01:30:17.607Z,144047.03
2022-11-13T01:33:03.234Z,144038.59
2022-11-13T01:35:49.034Z,143981.78
2022-11-13T01:38:36.953Z,144031.34
2022-11-13T01:41:31.733Z,144033.78
2022-11-13T01:44:19.014Z,144031.34
2022-11-13T01:47:05.302Z,143933.41
2022-11-13T01:49:55.988Z,144009.56
2022-11-13T01:52:42.655Z,144020.47
2022-11-13T01:55:29.019Z,144007.16
2022-11-13T01:58:14.968Z,144007.16
2022-11-13T02:01:00.796Z,144002.34
2022-11-13T02:03:46.466Z,143975.75
2022-11-13T02:06:42.441Z,143963.63
2022-11-13T02:09:35.516Z,143934.66
2022-11-13T02:12:43.473Z,143946.69
2022-11-13T02:15:33.599Z,143946.69
2022-11-13T02:18:22.383Z,143937.03
2022-11-13T02:21:16.530Z,143922.56
2022-11-13T02:24:20.817Z,143862.16
2022-11-13T02:27:10.846Z,143869.38
2022-11-13T02:29:56.083Z,143906.84
2022-11-13T02:32:44.247Z,143893.56
2022-11-13T02:35:33.566Z,143889.94
2022-11-13T02:38:18.931Z,143873.00
2022-11-13T02:41:04.629Z,143876.63
2022-11-13T02:43:50.133Z,143839.19
2022-11-13T02:46:36.104Z,143845.22
2022-11-13T02:49:21.693Z,143830.72
2022-11-13T02:52:07.344Z,143830.72
2022-11-13T02:54:53.096Z,143835.56
2022-11-13T02:57:38.610Z,143840.38
2022-11-13T03:00:24.477Z,143845.22
2022-11-13T03:03:10.117Z,143846.41
2022-11-13T03:05:55.697Z,143833.13
2022-11-13T03:08:41.322Z,143828.28
2022-11-13T03:11:27.161Z,143811.38
2022-11-13T03:14:12.747Z,143827.09
2022-11-13T03:16:58.433Z,143775.13
2022-11-13T03:19:44.295Z,143758.25
2022-11-13T03:22:29.962Z,143717.19
2022-11-13T03:25:15.861Z,143827.09
2022-11-13T03:28:01.586Z,143824.66
2022-11-13T03:30:47.825Z,143821.06
2022-11-13T03:33:33.495Z,143804.16
2022-11-13T03:36:19.302Z,143792.06
2022-11-13T03:39:04.989Z,143795.69
2022-11-13T03:41:50.746Z,143799.31
2022-11-13T03:44:36.024Z,143775.13
2022-11-13T03:47:21.773Z,143770.31
2022-11-13T03:50:07.583Z,143763.09
2022-11-13T03:52:53.239Z,143755.81
2022-11-13T03:55:38.725Z,143743.78
2022-11-13T03:58:24.521Z,143741.34
2022-11-13T04:01:10.574Z,143748.59
2022-11-13T04:03:55.867Z,143757.00
2022-11-13T04:06:41.748Z,143771.53
2022-11-13T04:09:27.282Z,143781.19
2022-11-13T04:12:12.898Z,143782.41
2022-11-13T04:14:58.642Z,143775.13
2022-11-13T04:17:44.286Z,143780.00
2022-11-13T04:20:30.149Z,143750.97
2022-11-13T04:23:17.803Z,143760.63
2022-11-13T04:26:03.545Z,143746.16
2022-11-13T04:28:48.973Z,143712.38
2022-11-13T04:31:34.604Z,143621.81
2022-11-13T04:34:20.035Z,143708.72
2022-11-13T04:37:05.841Z,143707.53
2022-11-13T04:39:51.416Z,143709.94
2022-11-13T04:42:48.853Z,143709.94
2022-11-13T04:45:35.032Z,143627.81
2022-11-13T04:48:20.506Z,143688.19
2022-11-13T04:51:06.275Z,143557.78
2022-11-13T04:53:51.864Z,143661.63
2022-11-13T04:56:37.273Z,143668.88
2022-11-13T04:59:23.058Z,143661.63
2022-11-13T05:02:08.623Z,143667.69
2022-11-13T05:04:53.991Z,143678.53
2022-11-13T05:07:39.555Z,143676.13
2022-11-13T05:10:25.180Z,143671.31
2022-11-13T05:13:10.971Z,143671.31
2022-11-13T05:16:15.233Z,143596.44
2022-11-13T05:19:01.606Z,143655.59
2022-11-13T05:21:46.971Z,143637.47
2022-11-13T05:24:32.945Z,143638.66
2022-11-13T05:27:18.726Z,143649.56
2022-11-13T05:30:04.831Z,143620.56
2022-11-13T05:32:51.767Z,143620.56
2022-11-13T05:35:37.080Z,143568.69
2022-11-13T05:38:22.437Z,143620.56
2022-11-13T05:41:13.658Z,143623.00
2022-11-13T05:44:00.027Z,143623.00
2022-11-13T05:46:45.729Z,143557.78
2022-11-13T05:49:31.513Z,143615.75
2022-11-13T05:52:16.889Z,143606.09
2022-11-13T05:55:02.763Z,143598.88
2022-11-13T05:57:48.310Z,143606.09
2022-11-13T06:00:33.890Z,143470.91
2022-11-13T06:03:19.820Z,143594.00
2022-11-13T06:06:07.633Z,143587.97
2022-11-13T06:08:54.183Z,143578.31
2022-11-13T06:11:39.921Z,143560.22
2022-11-13T06:14:25.909Z,143552.97
2022-11-13T06:17:11.435Z,143551.75
2022-11-13T06:19:57.210Z,143527.66
2022-11-13T06:22:43.017Z,143526.44
2022-11-13T06:25:28.922Z,143505.91
2022-11-13T06:28:14.283Z,143528.84
2022-11-13T06:31:11.639Z,143538.50
2022-11-13T06:34:00.320Z,143543.31
2022-11-13T06:36:45.910Z,143549.38
2022-11-13T06:39:31.699Z,143561.41
2022-11-13T06:42:17.348Z,143554.19
2022-11-13T06:45:04.135Z,143569.88
2022-11-13T06:47:49.922Z,143577.13
2022-11-13T06:50:35.467Z,143568.69
2022-11-13T06:53:21.295Z,143565.06
2022-11-13T06:56:07.880Z,143574.69
2022-11-13T06:58:56.525Z,143601.25
2022-11-13T07:01:42.163Z,143616.97
2022-11-13T07:04:27.955Z,143649.56
2022-11-13T07:07:13.306Z,143651.97
2022-11-13T07:09:58.997Z,143673.69
2022-11-13T07:12:44.760Z,143709.94
2022-11-13T07:15:34.910Z,143661.63
2022-11-13T07:18:24.098Z,143747.34
2022-11-13T07:21:12.507Z,143755.81
2022-11-13T07:23:58.191Z,143769.09
2022-11-13T07:26:43.814Z,143799.31
2022-11-13T07:29:29.611Z,143715.94
2022-11-13T07:32:15.333Z,143845.22
2022-11-13T07:35:00.987Z,143875.44
2022-11-13T07:37:46.746Z,143893.56
2022-11-13T07:40:32.350Z,143920.13
2022-11-13T07:43:18.045Z,143851.25
2022-11-13T07:46:03.783Z,143950.34
2022-11-13T07:48:49.197Z,143939.47
2022-11-13T07:51:34.563Z,143963.63
2022-11-13T07:54:20.253Z,144005.94
2022-11-13T07:57:06.216Z,143921.34
2022-11-13T07:59:51.530Z,144019.22
2022-11-13T08:02:37.297Z,144021.66
2022-11-13T08:05:23.195Z,144019.22
2022-11-13T08:08:12.958Z,144036.16
2022-11-13T08:10:58.744Z,144060.34
2022-11-13T08:13:44.415Z,144090.56
2022-11-13T08:16:29.905Z,144146.19
2022-11-13T08:19:15.602Z,144161.94
2022-11-13T08:22:01.131Z,144189.75
2022-11-13T08:24:46.784Z,144244.19
2022-11-13T08:27:32.625Z,144258.69
2022-11-13T08:30:19.167Z,144310.75
2022-11-13T08:33:05.158Z,144328.88
2022-11-13T08:35:59.768Z,144378.50
2022-11-13T08:38:47.938Z,144399.06
2022-11-13T08:41:33.816Z,144411.19
2022-11-13T08:44:19.287Z,144441.41
2022-11-13T08:47:05.098Z,144494.69
2022-11-13T08:49:50.722Z,144517.69
2022-11-13T08:52:36.753Z,144552.81
2022-11-13T08:55:22.309Z,144561.31
2022-11-13T08:58:09.157Z,144579.47
2022-11-13T09:00:59.984Z,144620.63
2022-11-13T09:03:45.588Z,144650.91
2022-11-13T09:06:31.250Z,144694.56
2022-11-13T09:09:17.114Z,144724.88
2022-11-13T09:12:02.884Z,144738.19
2022-11-13T09:14:48.716Z,144769.72
2022-11-13T09:17:34.250Z,144818.16
2022-11-13T09:20:22.795Z,144881.19
2022-11-13T09:23:09.601Z,144913.91
2022-11-13T09:25:56.066Z,144944.22
2022-11-13T09:28:41.451Z,144958.78
2022-11-13T09:31:28.332Z,145023.03
2022-11-13T09:34:14.183Z,145059.41
2022-11-13T09:37:00.257Z,145078.88
2022-11-13T09:39:46.097Z,145111.59
2022-11-13T09:42:33.077Z,145123.69
2022-11-13T09:45:18.830Z,145165.00
2022-11-13T09:48:18.104Z,145206.25
2022-11-13T09:51:30.440Z,145251.09
2022-11-13T09:54:17.117Z,145293.66
2022-11-13T09:57:05.715Z,145315.50
2022-11-13T10:00:00.894Z,145337.31
2022-11-13T10:03:06.151Z,145348.28
2022-11-13T10:06:24.838Z,145031.53
2022-11-13T10:09:40.878Z,145288.81
2022-11-13T10:12:30.935Z,145432.03
2022-11-13T10:15:17.503Z,145451.44
2022-11-13T10:18:51.723Z,145503.69
2022-11-13T10:21:45.874Z,145524.31
2022-11-13T10:24:41.653Z,145534.06
2022-11-13T10:27:27.170Z,145473.31
2022-11-13T10:30:17.660Z,145597.19
2022-11-13T10:33:13.015Z,145645.81
2022-11-13T10:36:20.626Z,145738.19
2022-11-13T10:39:08.574Z,145785.63
2022-11-13T10:41:55.844Z,145784.38
2022-11-13T10:44:59.250Z,145784.38
2022-11-13T10:48:03.901Z,145796.56
2022-11-13T10:51:01.334Z,145850.06
2022-11-13T10:53:47.293Z,145854.91
2022-11-13T10:56:35.104Z,145886.53
2022-11-13T10:59:20.605Z,145935.19
2022-11-13T11:02:26.818Z,145949.78
2022-11-13T11:05:24.843Z,146005.69
2022-11-13T11:08:11.098Z,146034.88
2022-11-13T11:11:20.734Z,146037.31
2022-11-13T11:14:22.545Z,146076.28
2022-11-13T11:17:12.665Z,146139.56
2022-11-13T11:20:13.512Z,146173.66
2022-11-13T11:23:09.086Z,146210.16
2022-11-13T11:25:59.712Z,146213.81
2022-11-13T11:28:51.739Z,146239.34
2022-11-13T11:31:50.910Z,146277.06
2022-11-13T11:34:42.010Z,146351.34
2022-11-13T11:37:39.395Z,146380.56
2022-11-13T11:40:30.826Z,146417.13
2022-11-13T11:43:40.691Z,146404.91
2022-11-13T11:46:28.357Z,146436.63
2022-11-13T11:49:14.094Z,146465.88
2022-11-13T11:52:14.839Z,146512.16
2022-11-13T11:55:08.056Z,146521.88
2022-11-13T11:57:58.310Z,146538.94
2022-11-13T12:00:50.900Z,146538.94
2022-11-13T12:03:48.973Z,146559.63
2022-11-13T12:07:00.250Z,146587.66
2022-11-13T12:09:55.656Z,146604.72
2022-11-13T12:12:43.795Z,146616.91
2022-11-13T12:16:13.028Z,146670.53
2022-11-13T12:19:13.312Z,146677.81
2022-11-13T12:22:30.544Z,146712.03
2022-11-13T12:25:29.428Z,146741.25
2022-11-13T12:28:24.730Z,146762.00
2022-11-13T12:31:38.967Z,146782.69
2022-11-13T12:34:42.408Z,146802.19
2022-11-13T12:37:38.437Z,146838.75
2022-11-13T12:40:49.412Z,146813.19
2022-11-13T12:44:01.396Z,146826.59
2022-11-13T12:46:48.381Z,146819.25
2022-11-13T12:49:35.309Z,146832.69
2022-11-13T12:52:24.220Z,146822.94
2022-11-13T12:55:34.789Z,146816.84
2022-11-13T12:58:27.392Z,146738.84
2022-11-13T13:01:16.585Z,146811.97
2022-11-13T13:04:11.069Z,146787.56
2022-11-13T13:07:13.456Z,146837.56
2022-11-13T13:10:16.995Z,146833.88
2022-11-13T13:13:24.288Z,146857.06
2022-11-13T13:16:11.273Z,146833.88
2022-11-13T13:19:30.622Z,146814.41
2022-11-13T13:22:30.456Z,146843.63
2022-11-13T13:25:28.352Z,146833.88
2022-11-13T13:28:24.206Z,146865.59
2022-11-13T13:31:12.495Z,146855.84
2022-11-13T13:34:24.800Z,146865.59
2022-11-13T13:37:37.646Z,146869.25
2022-11-13T13:40:22.953Z,146850.97
2022-11-13T13:43:23.560Z,146825.34
2022-11-13T13:46:30.903Z,146803.44
2022-11-13T13:49:21.507Z,146814.41
2022-11-13T13:52:07.002Z,146816.84
2022-11-13T13:54:53.016Z,146722.97
2022-11-13T13:57:41.555Z,146790.03
2022-11-13T14:00:27.786Z,146746.13
2022-11-13T14:03:22.030Z,146751.00
2022-11-13T14:06:19.028Z,146794.91
2022-11-13T14:09:16.823Z,146790.03
2022-11-13T14:12:09.960Z,146792.44
2022-11-13T14:14:56.002Z,146765.63
2022-11-13T14:17:41.980Z,146755.88
2022-11-13T14:20:27.830Z,146743.72
2022-11-13T14:23:19.211Z,146758.34
2022-11-13T14:26:06.290Z,146716.91
2022-11-13T14:29:01.839Z,146686.38
2022-11-13T14:31:47.515Z,146655.88
2022-11-13T14:34:33.340Z,146560.88
2022-11-13T14:37:32.878Z,146646.13
2022-11-13T14:40:37.394Z,146629.13
2022-11-13T14:43:27.823Z,146594.97
2022-11-13T14:46:44.516Z,146553.56
2022-11-13T14:49:33.546Z,146524.34
2022-11-13T14:52:27.151Z,146491.41
2022-11-13T14:55:25.701Z,146453.66
2022-11-13T14:58:13.905Z,146336.75
2022-11-13T15:01:12.439Z,146385.44
2022-11-13T15:03:58.359Z,146353.78
2022-11-13T15:06:44.630Z,146309.97
2022-11-13T15:09:31.140Z,146289.25
2022-11-13T15:12:16.924Z,146251.53
2022-11-13T15:15:02.414Z,146249.06
2022-11-13T15:17:50.977Z,146152.94
2022-11-13T15:20:36.651Z,146201.63
2022-11-13T15:23:25.443Z,146171.19
2022-11-13T15:26:12.076Z,146146.88
2022-11-13T15:28:57.709Z,146107.91
2022-11-13T15:31:46.049Z,146095.78
2022-11-13T15:34:31.511Z,146051.91
2022-11-13T15:37:17.607Z,145952.19
2022-11-13T15:40:03.917Z,145950.97
2022-11-13T15:42:49.402Z,145964.34
2022-11-13T15:45:37.633Z,145916.94
2022-11-13T15:48:25.802Z,145888.94
2022-11-13T15:51:37.476Z,145888.94
2022-11-13T15:54:31.040Z,145848.84
2022-11-13T15:57:21.161Z,145825.75
2022-11-13T16:00:14.152Z,145818.44
2022-11-13T16:03:00.281Z,145811.13
2022-11-13T16:05:45.714Z,145785.63
2022-11-13T16:08:31.504Z,145771.06
2022-11-13T16:11:19.019Z,145733.34
2022-11-13T16:14:05.115Z,145717.56
2022-11-13T16:16:51.955Z,145684.72
2022-11-13T16:19:39.182Z,145648.28
2022-11-13T16:22:26.657Z,145623.94
2022-11-13T16:25:15.422Z,145580.22
2022-11-13T16:28:00.932Z,145527.97
2022-11-13T16:30:47.121Z,145512.19
2022-11-13T16:33:32.577Z,145483.03
2022-11-13T16:36:20.561Z,145449.03
2022-11-13T16:39:06.364Z,145422.31
2022-11-13T16:41:51.920Z,145419.94
2022-11-13T16:44:38.107Z,145421.13
2022-11-13T16:47:25.897Z,145424.78
2022-11-13T16:50:33.094Z,145423.53
2022-11-13T16:53:18.952Z,145395.63
2022-11-13T16:56:12.886Z,145364.03
2022-11-13T16:58:58.900Z,145351.94
2022-11-13T17:01:44.689Z,145359.19
2022-11-13T17:04:30.495Z,145362.84
2022-11-13T17:07:16.391Z,145350.69
2022-11-13T17:10:29.579Z,145334.94
2022-11-13T17:13:09.683Z,145220.78
2022-11-13T17:15:55.454Z,145271.81
2022-11-13T17:18:40.872Z,145266.94
2022-11-13T17:21:27.926Z,145246.25
2022-11-13T17:24:13.763Z,145211.09
2022-11-13T17:26:59.432Z,145165.00
2022-11-13T17:29:45.331Z,145140.69
2022-11-13T17:32:30.896Z,145123.69
2022-11-13T17:35:17.922Z,145118.84
2022-11-13T17:38:03.690Z,145101.91
2022-11-13T17:40:49.508Z,145026.69
2022-11-13T17:43:39.168Z,145104.31
2022-11-13T17:46:24.903Z,145024.28
2022-11-13T17:49:10.754Z,145105.50
2022-11-13T17:51:56.793Z,145099.47
2022-11-13T17:54:42.426Z,145060.66
2022-11-13T17:57:27.795Z,145057.03
2022-11-13T18:00:13.934Z,145049.72
2022-11-13T18:02:59.547Z,145024.28
2022-11-13T18:05:46.047Z,144983.06
2022-11-13T18:08:31.414Z,144958.78
2022-11-13T18:11:23.750Z,144933.34
2022-11-13T18:14:09.215Z,144918.75
2022-11-13T18:16:54.739Z,144898.16
2022-11-13T18:19:40.473Z,144882.38
2022-11-13T18:22:26.096Z,144855.75
2022-11-13T18:25:11.957Z,144821.81
2022-11-13T18:27:57.274Z,144783.03
2022-11-13T18:30:44.633Z,144772.09
2022-11-13T18:33:30.501Z,144752.72
2022-11-13T18:36:16.362Z,144767.25
2022-11-13T18:39:03.062Z,144697.00
2022-11-13T18:41:48.838Z,144769.72
2022-11-13T18:44:35.468Z,144755.13
2022-11-13T18:47:21.205Z,144745.44
2022-11-13T18:50:07.079Z,144697.00
2022-11-13T18:52:54.979Z,144718.78
2022-11-13T18:55:40.822Z,144694.56
2022-11-13T18:58:27.730Z,144682.44
2022-11-13T19:01:22.344Z,144663.03
2022-11-13T19:04:22.781Z,144631.53
2022-11-13T19:07:11.965Z,144621.84
2022-11-13T19:09:57.617Z,144609.72
2022-11-13T19:12:43.234Z,144598.84
2022-11-13T19:15:29.070Z,144596.38
2022-11-13T19:18:14.666Z,144569.78
2022-11-13T19:21:08.457Z,144551.63
2022-11-13T19:23:54.389Z,144541.88
2022-11-13T19:26:41.411Z,144539.50
2022-11-13T19:29:27.101Z,144532.22
2022-11-13T19:32:12.754Z,144503.16
2022-11-13T19:34:58.149Z,144510.44
2022-11-13T19:37:43.988Z,144498.31
2022-11-13T19:40:29.870Z,144468.03
2022-11-13T19:43:15.519Z,144452.34
2022-11-13T19:46:05.190Z,144445.06
2022-11-13T19:48:51.806Z,144303.47
2022-11-13T19:51:37.551Z,144409.94
2022-11-13T19:54:22.981Z,144409.94
2022-11-13T19:57:08.811Z,144434.16
2022-11-13T19:59:54.121Z,144439.00
2022-11-13T20:02:39.897Z,144426.91
2022-11-13T20:05:25.782Z,144302.25
2022-11-13T20:08:12.762Z,144403.91
2022-11-13T20:11:03.805Z,144397.84
2022-11-13T20:13:49.556Z,144393.03
2022-11-13T20:16:35.187Z,144386.94
2022-11-13T20:19:20.846Z,144383.34
2022-11-13T20:22:06.686Z,144370.03
2022-11-13T20:24:52.051Z,144353.06
2022-11-13T20:27:39.883Z,144313.13
2022-11-13T20:30:27.556Z,144310.75
2022-11-13T20:33:14.590Z,144310.75
2022-11-13T20:36:03.725Z,144304.66
2022-11-13T20:38:51.813Z,144314.34
2022-11-13T20:41:37.697Z,144297.44
2022-11-13T20:44:23.357Z,144302.25
2022-11-13T20:47:09.034Z,144292.59
2022-11-13T20:49:54.394Z,144263.53
2022-11-13T20:52:40.412Z,144251.47
2022-11-13T20:55:25.902Z,144229.66
2022-11-13T20:58:11.238Z,144212.72
2022-11-13T21:01:05.316Z,144180.06
2022-11-13T21:03:51.938Z,144171.59
2022-11-13T21:06:37.839Z,144159.50
2022-11-13T21:09:23.291Z,144117.19
2022-11-13T21:12:09.109Z,144128.03
2022-11-13T21:14:54.463Z,144123.22
2022-11-13T21:17:40.096Z,144101.44
2022-11-13T21:20:25.831Z,144065.16
2022-11-13T21:23:11.389Z,144088.19
2022-11-13T21:26:00.996Z,144094.22
2022-11-13T21:28:46.780Z,144083.28
2022-11-13T21:31:32.257Z,144084.53
2022-11-13T21:34:17.627Z,144077.28
2022-11-13T21:37:03.293Z,144084.53
2022-11-13T21:39:48.832Z,144048.28
2022-11-13T21:42:34.592Z,144059.13
2022-11-13T21:45:19.997Z,144055.50
2022-11-13T21:48:05.842Z,144041.00
2022-11-13T21:50:51.756Z,144041.00
2022-11-13T21:53:38.211Z,144024.06
2022-11-13T21:56:25.204Z,144002.34
2022-11-13T21:59:10.583Z,143996.25
2022-11-13T22:01:56.219Z,143982.97
2022-11-13T22:04:41.616Z,143989.03
2022-11-13T22:07:27.148Z,143973.31
2022-11-13T22:10:12.718Z,143950.34
2022-11-13T22:12:58.443Z,143961.25
2022-11-13T22:15:43.995Z,143957.59
2022-11-13T22:18:29.927Z,143951.53
2022-11-13T22:21:15.774Z,143940.69
2022-11-13T22:24:01.633Z,143933.41
2022-11-13T22:26:48.352Z,143931.00
2022-11-13T22:29:33.725Z,143921.34
2022-11-13T22:32:19.118Z,143933.41
2022-11-13T22:35:05.286Z,143941.88
2022-11-13T22:37:51.045Z,143943.13
2022-11-13T22:40:36.941Z,143941.88
2022-11-13T22:43:22.644Z,143901.97
2022-11-13T22:46:11.180Z,143914.09
2022-11-13T22:48:58.112Z,143813.81
2022-11-13T22:51:43.839Z,143885.09
2022-11-13T22:54:29.293Z,143888.75
2022-11-13T22:57:14.636Z,143863.34
2022-11-13T23:00:00.413Z,143871.81
2022-11-13T23:02:47.515Z,143859.72
2022-11-13T23:05:36.062Z,143810.16
2022-11-13T23:08:21.717Z,143864.53
2022-11-13T23:11:37.775Z,143876.63
2022-11-13T23:14:23.466Z,143876.63
2022-11-13T23:17:09.262Z,143874.19
2022-11-13T23:19:54.885Z,143871.81
2022-11-13T23:22:40.460Z,143850.03
2022-11-13T23:25:26.298Z,143833.13
2022-11-13T23:28:12.025Z,143841.59
2022-11-13T23:30:58.271Z,143858.50
2022-11-13T23:33:44.165Z,143862.16
2022-11-13T23:36:30.852Z,143889.94
2022-11-13T23:39:16.296Z,143900.78
2022-11-13T23:42:02.034Z,143912.88
2022-11-13T23:44:47.608Z,143944.31
2022-11-13T23:47:33.090Z,143950.34
2022-11-13T23:50:18.927Z,143958.81
2022-11-13T23:53:04.381Z,143973.31
2022-11-13T23:55:49.745Z,144016.84
2022-11-13T23:58:35.859Z,144009.56
